sensor_id;sensor_type;location;lat;lon;timestamp;P1;durP1;ratioP1;P2;durP2;ratioP2
20705;SDS011;10514;49.468;11.044;2024-03-23T00:55:37;9.00;;;6.00;;
20705;SDS011;10514;49.468;11.044;2024-03-23T00:58:03;8.83;;;6.40;;
20705;SDS011;10514;49.468;11.044;2024-03-23T01:00:28;10.23;;;5.40;;
20705;SDS011;10514;49.468;11.044;2024-03-23T01:02:54;8.87;;;5.47;;
20705;SDS011;10514;49.468;11.044;2024-03-23T01:05:20;9.50;;;5.60;;
20705;SDS011;10514;49.468;11.044;2024-03-23T01:07:45;7.23;;;5.20;;
20705;SDS011;10514;49.468;11.044;2024-03-23T01:10:11;6.73;;;5.23;;
20705;SDS011;10514;49.468;11.044;2024-03-23T01:12:37;8.57;;;5.70;;
20705;SDS011;10514;49.468;11.044;2024-03-23T01:15:02;7.90;;;5.23;;
20705;SDS011;10514;49.468;11.044;2024-03-23T01:17:28;7.40;;;5.37;;
20705;SDS011;10514;49.468;11.044;2024-03-23T01:19:53;9.63;;;6.07;;
20705;SDS011;10514;49.468;11.044;2024-03-23T01:22:19;8.30;;;5.70;;
20705;SDS011;10514;49.468;11.044;2024-03-23T01:24:44;10.10;;;6.40;;
20705;SDS011;10514;49.468;11.044;2024-03-23T01:27:10;8.60;;;5.90;;
20705;SDS011;10514;49.468;11.044;2024-03-23T01:29:35;9.50;;;6.53;;
20705;SDS011;10514;49.468;11.044;2024-03-23T01:32:01;7.70;;;5.40;;
20705;SDS011;10514;49.468;11.044;2024-03-23T01:34:26;8.00;;;5.67;;
20705;SDS011;10514;49.468;11.044;2024-03-23T01:36:53;9.50;;;6.23;;
20705;SDS011;10514;49.468;11.044;2024-03-23T01:39:18;9.63;;;6.47;;
20705;SDS011;10514;49.468;11.044;2024-03-23T01:41:44;8.27;;;5.87;;
20705;SDS011;10514;49.468;11.044;2024-03-23T01:44:09;7.93;;;5.67;;
20705;SDS011;10514;49.468;11.044;2024-03-23T01:46:35;8.90;;;6.10;;
20705;SDS011;10514;49.468;11.044;2024-03-23T01:49:02;11.63;;;6.47;;
20705;SDS011;10514;49.468;11.044;2024-03-23T01:51:28;8.40;;;5.83;;
20705;SDS011;10514;49.468;11.044;2024-03-23T01:53:54;9.30;;;6.30;;
20705;SDS011;10514;49.468;11.044;2024-03-23T01:56:21;10.63;;;6.57;;
20705;SDS011;10514;49.468;11.044;2024-03-23T01:58:47;11.20;;;7.20;;
20705;SDS011;10514;49.468;11.044;2024-03-23T02:01:12;9.77;;;6.70;;
20705;SDS011;10514;49.468;11.044;2024-03-23T02:03:38;9.73;;;6.60;;
20705;SDS011;10514;49.468;11.044;2024-03-23T02:06:03;10.63;;;6.63;;
20705;SDS011;10514;49.468;11.044;2024-03-23T02:08:32;10.13;;;6.43;;
20705;SDS011;10514;49.468;11.044;2024-03-23T02:10:58;9.73;;;6.47;;
20705;SDS011;10514;49.468;11.044;2024-03-23T02:13:23;10.03;;;6.60;;
20705;SDS011;10514;49.468;11.044;2024-03-23T02:15:49;10.17;;;6.90;;
20705;SDS011;10514;49.468;11.044;2024-03-23T02:18:15;9.43;;;6.23;;
20705;SDS011;10514;49.468;11.044;2024-03-23T02:20:40;9.70;;;6.23;;
20705;SDS011;10514;49.468;11.044;2024-03-23T02:23:12;9.43;;;6.37;;
20705;SDS011;10514;49.468;11.044;2024-03-23T02:25:41;8.60;;;5.87;;
20705;SDS011;10514;49.468;11.044;2024-03-23T02:28:07;7.07;;;5.37;;
20705;SDS011;10514;49.468;11.044;2024-03-23T02:30:33;7.97;;;5.40;;
20705;SDS011;10514;49.468;11.044;2024-03-23T02:32:58;7.53;;;5.40;;
20705;SDS011;10514;49.468;11.044;2024-03-23T02:35:24;8.43;;;6.03;;
20705;SDS011;10514;49.468;11.044;2024-03-23T02:37:49;9.33;;;5.97;;
20705;SDS011;10514;49.468;11.044;2024-03-23T02:40:15;10.37;;;5.87;;
20705;SDS011;10514;49.468;11.044;2024-03-23T02:46:03;8.97;;;6.27;;
20705;SDS011;10514;49.468;11.044;2024-03-23T02:48:29;9.73;;;6.00;;
20705;SDS011;10514;49.468;11.044;2024-03-23T02:50:54;9.53;;;6.27;;
20705;SDS011;10514;49.468;11.044;2024-03-23T02:53:20;9.23;;;5.97;;
20705;SDS011;10514;49.468;11.044;2024-03-23T02:55:45;10.63;;;6.37;;
20705;SDS011;10514;49.468;11.044;2024-03-23T02:58:11;8.53;;;6.00;;
20705;SDS011;10514;49.468;11.044;2024-03-23T03:00:36;10.13;;;6.30;;
20705;SDS011;10514;49.468;11.044;2024-03-23T03:03:02;9.70;;;6.30;;
20705;SDS011;10514;49.468;11.044;2024-03-23T03:05:28;9.03;;;6.23;;
20705;SDS011;10514;49.468;11.044;2024-03-23T03:07:53;7.73;;;5.90;;
20705;SDS011;10514;49.468;11.044;2024-03-23T03:10:19;9.57;;;6.10;;
20705;SDS011;10514;49.468;11.044;2024-03-23T03:12:44;9.70;;;6.23;;
20705;SDS011;10514;49.468;11.044;2024-03-23T03:15:10;9.77;;;6.27;;
20705;SDS011;10514;49.468;11.044;2024-03-23T03:17:35;10.00;;;5.90;;
20705;SDS011;10514;49.468;11.044;2024-03-23T03:20:01;8.67;;;5.93;;
20705;SDS011;10514;49.468;11.044;2024-03-23T03:22:27;9.77;;;6.53;;
20705;SDS011;10514;49.468;11.044;2024-03-23T03:24:52;8.10;;;5.57;;
20705;SDS011;10514;49.468;11.044;2024-03-23T03:27:18;10.60;;;6.30;;
20705;SDS011;10514;49.468;11.044;2024-03-23T03:29:44;8.73;;;6.07;;
20705;SDS011;10514;49.468;11.044;2024-03-23T03:32:10;9.97;;;6.40;;
20705;SDS011;10514;49.468;11.044;2024-03-23T03:34:35;7.30;;;5.90;;
20705;SDS011;10514;49.468;11.044;2024-03-23T03:37:01;9.13;;;6.37;;
20705;SDS011;10514;49.468;11.044;2024-03-23T03:39:26;11.87;;;6.40;;
20705;SDS011;10514;49.468;11.044;2024-03-23T03:41:52;11.57;;;6.30;;
20705;SDS011;10514;49.468;11.044;2024-03-23T03:44:17;8.73;;;6.10;;
20705;SDS011;10514;49.468;11.044;2024-03-23T03:46:43;9.73;;;6.67;;
20705;SDS011;10514;49.468;11.044;2024-03-23T03:49:08;8.27;;;6.30;;
20705;SDS011;10514;49.468;11.044;2024-03-23T03:51:34;8.40;;;6.20;;
20705;SDS011;10514;49.468;11.044;2024-03-23T03:53:59;9.33;;;6.90;;
20705;SDS011;10514;49.468;11.044;2024-03-23T03:56:25;9.30;;;5.97;;
20705;SDS011;10514;49.468;11.044;2024-03-23T03:58:50;9.97;;;6.77;;
20705;SDS011;10514;49.468;11.044;2024-03-23T04:01:16;11.23;;;6.70;;
20705;SDS011;10514;49.468;11.044;2024-03-23T04:03:42;9.37;;;6.50;;
20705;SDS011;10514;49.468;11.044;2024-03-23T04:06:09;10.03;;;6.87;;
20705;SDS011;10514;49.468;11.044;2024-03-23T04:08:34;9.97;;;7.03;;
20705;SDS011;10514;49.468;11.044;2024-03-23T04:11:00;9.93;;;6.43;;
20705;SDS011;10514;49.468;11.044;2024-03-23T04:13:26;10.47;;;6.80;;
20705;SDS011;10514;49.468;11.044;2024-03-23T04:15:55;11.10;;;6.63;;
20705;SDS011;10514;49.468;11.044;2024-03-23T04:18:21;8.97;;;6.40;;
20705;SDS011;10514;49.468;11.044;2024-03-23T04:20:48;9.53;;;6.77;;
20705;SDS011;10514;49.468;11.044;2024-03-23T04:23:14;9.27;;;6.40;;
20705;SDS011;10514;49.468;11.044;2024-03-23T04:25:39;10.53;;;7.03;;
20705;SDS011;10514;49.468;11.044;2024-03-23T04:28:05;10.27;;;6.43;;
20705;SDS011;10514;49.468;11.044;2024-03-23T04:30:30;9.63;;;6.60;;
20705;SDS011;10514;49.468;11.044;2024-03-23T04:32:56;10.50;;;6.77;;
20705;SDS011;10514;49.468;11.044;2024-03-23T04:35:23;8.73;;;5.77;;
20705;SDS011;10514;49.468;11.044;2024-03-23T04:37:50;9.83;;;6.63;;
20705;SDS011;10514;49.468;11.044;2024-03-23T04:40:19;9.27;;;6.43;;
20705;SDS011;10514;49.468;11.044;2024-03-23T04:42:45;9.07;;;5.90;;
20705;SDS011;10514;49.468;11.044;2024-03-23T04:45:10;9.17;;;6.33;;
20705;SDS011;10514;49.468;11.044;2024-03-23T04:47:37;9.00;;;6.43;;
20705;SDS011;10514;49.468;11.044;2024-03-23T04:50:03;9.53;;;5.93;;
20705;SDS011;10514;49.468;11.044;2024-03-23T04:52:30;9.33;;;6.27;;
20705;SDS011;10514;49.468;11.044;2024-03-23T04:54:55;10.77;;;6.67;;
20705;SDS011;10514;49.468;11.044;2024-03-23T04:57:21;9.97;;;6.17;;
20705;SDS011;10514;49.468;11.044;2024-03-23T04:59:46;8.83;;;5.83;;
20705;SDS011;10514;49.468;11.044;2024-03-23T05:02:12;10.83;;;6.40;;
20705;SDS011;10514;49.468;11.044;2024-03-23T05:04:38;10.10;;;6.53;;
20705;SDS011;10514;49.468;11.044;2024-03-23T05:07:05;9.13;;;6.00;;
20705;SDS011;10514;49.468;11.044;2024-03-23T05:09:31;8.03;;;5.90;;
20705;SDS011;10514;49.468;11.044;2024-03-23T05:11:58;9.73;;;5.80;;
20705;SDS011;10514;49.468;11.044;2024-03-23T05:14:26;9.97;;;6.37;;
20705;SDS011;10514;49.468;11.044;2024-03-23T05:16:52;8.13;;;5.77;;
20705;SDS011;10514;49.468;11.044;2024-03-23T05:19:18;9.30;;;6.00;;
20705;SDS011;10514;49.468;11.044;2024-03-23T05:21:43;8.30;;;5.57;;
20705;SDS011;10514;49.468;11.044;2024-03-23T05:24:09;9.57;;;5.60;;
20705;SDS011;10514;49.468;11.044;2024-03-23T05:26:35;8.50;;;5.87;;
20705;SDS011;10514;49.468;11.044;2024-03-23T05:29:01;9.73;;;5.47;;
20705;SDS011;10514;49.468;11.044;2024-03-23T05:31:28;8.03;;;4.90;;
20705;SDS011;10514;49.468;11.044;2024-03-23T05:33:55;8.10;;;5.17;;
20705;SDS011;10514;49.468;11.044;2024-03-23T05:36:20;9.40;;;5.63;;
20705;SDS011;10514;49.468;11.044;2024-03-23T05:38:46;7.17;;;4.87;;
20705;SDS011;10514;49.468;11.044;2024-03-23T05:41:12;8.40;;;5.10;;
20705;SDS011;10514;49.468;11.044;2024-03-23T05:43:37;8.37;;;5.67;;
20705;SDS011;10514;49.468;11.044;2024-03-23T05:46:03;9.10;;;4.77;;
20705;SDS011;10514;49.468;11.044;2024-03-23T05:48:30;5.70;;;4.43;;
20705;SDS011;10514;49.468;11.044;2024-03-23T05:50:55;6.13;;;4.47;;
20705;SDS011;10514;49.468;11.044;2024-03-23T05:53:21;6.50;;;4.37;;
20705;SDS011;10514;49.468;11.044;2024-03-23T05:55:49;6.67;;;4.33;;
20705;SDS011;10514;49.468;11.044;2024-03-23T05:58:24;5.87;;;3.90;;
20705;SDS011;10514;49.468;11.044;2024-03-23T06:00:56;7.90;;;3.97;;
20705;SDS011;10514;49.468;11.044;2024-03-23T06:03:26;6.37;;;4.10;;
20705;SDS011;10514;49.468;11.044;2024-03-23T06:05:52;4.57;;;3.57;;
20705;SDS011;10514;49.468;11.044;2024-03-23T06:08:20;6.13;;;3.80;;
20705;SDS011;10514;49.468;11.044;2024-03-23T06:10:46;6.97;;;4.07;;
20705;SDS011;10514;49.468;11.044;2024-03-23T06:13:12;6.30;;;4.10;;
20705;SDS011;10514;49.468;11.044;2024-03-23T06:15:38;7.50;;;4.60;;
20705;SDS011;10514;49.468;11.044;2024-03-23T06:18:04;5.93;;;4.22;;
20705;SDS011;10514;49.468;11.044;2024-03-23T06:20:30;7.13;;;4.77;;
20705;SDS011;10514;49.468;11.044;2024-03-23T06:22:55;8.37;;;4.80;;
20705;SDS011;10514;49.468;11.044;2024-03-23T06:25:21;6.57;;;4.93;;
20705;SDS011;10514;49.468;11.044;2024-03-23T06:27:46;10.23;;;5.13;;
20705;SDS011;10514;49.468;11.044;2024-03-23T06:30:12;7.47;;;5.30;;
20705;SDS011;10514;49.468;11.044;2024-03-23T06:32:38;7.97;;;5.70;;
20705;SDS011;10514;49.468;11.044;2024-03-23T06:35:03;9.00;;;6.33;;
20705;SDS011;10514;49.468;11.044;2024-03-23T06:37:35;8.68;;;5.65;;
20705;SDS011;10514;49.468;11.044;2024-03-23T06:40:01;8.63;;;6.53;;
20705;SDS011;10514;49.468;11.044;2024-03-23T06:42:26;9.80;;;6.73;;
20705;SDS011;10514;49.468;11.044;2024-03-23T06:44:52;9.03;;;6.63;;
20705;SDS011;10514;49.468;11.044;2024-03-23T06:47:17;10.20;;;7.10;;
20705;SDS011;10514;49.468;11.044;2024-03-23T06:49:43;10.60;;;7.33;;
20705;SDS011;10514;49.468;11.044;2024-03-23T06:52:08;12.27;;;7.33;;
20705;SDS011;10514;49.468;11.044;2024-03-23T06:54:34;12.47;;;7.50;;
20705;SDS011;10514;49.468;11.044;2024-03-23T06:56:59;11.47;;;7.63;;
20705;SDS011;10514;49.468;11.044;2024-03-23T06:59:25;10.97;;;7.43;;
20705;SDS011;10514;49.468;11.044;2024-03-23T07:01:50;11.77;;;7.73;;
20705;SDS011;10514;49.468;11.044;2024-03-23T07:04:16;11.50;;;7.77;;
20705;SDS011;10514;49.468;11.044;2024-03-23T07:06:42;9.43;;;7.27;;
20705;SDS011;10514;49.468;11.044;2024-03-23T07:09:09;9.53;;;7.10;;
20705;SDS011;10514;49.468;11.044;2024-03-23T07:11:34;10.50;;;7.33;;
20705;SDS011;10514;49.468;11.044;2024-03-23T07:14:00;9.23;;;6.83;;
20705;SDS011;10514;49.468;11.044;2024-03-23T07:16:26;10.40;;;6.60;;
20705;SDS011;10514;49.468;11.044;2024-03-23T07:18:52;9.67;;;6.70;;
20705;SDS011;10514;49.468;11.044;2024-03-23T07:21:17;9.03;;;6.20;;
20705;SDS011;10514;49.468;11.044;2024-03-23T07:23:43;10.87;;;5.50;;
20705;SDS011;10514;49.468;11.044;2024-03-23T07:26:10;7.63;;;4.90;;
20705;SDS011;10514;49.468;11.044;2024-03-23T07:28:35;7.37;;;5.33;;
20705;SDS011;10514;49.468;11.044;2024-03-23T07:33:30;8.10;;;5.23;;
20705;SDS011;10514;49.468;11.044;2024-03-23T07:35:56;7.73;;;5.10;;
20705;SDS011;10514;49.468;11.044;2024-03-23T07:38:22;8.03;;;5.03;;
20705;SDS011;10514;49.468;11.044;2024-03-23T07:40:48;8.43;;;5.07;;
20705;SDS011;10514;49.468;11.044;2024-03-23T07:45:50;8.27;;;4.90;;
20705;SDS011;10514;49.468;11.044;2024-03-23T07:48:17;8.10;;;5.20;;
20705;SDS011;10514;49.468;11.044;2024-03-23T07:50:42;9.03;;;5.73;;
20705;SDS011;10514;49.468;11.044;2024-03-23T07:53:08;9.73;;;5.70;;
20705;SDS011;10514;49.468;11.044;2024-03-23T07:55:33;8.37;;;5.80;;
20705;SDS011;10514;49.468;11.044;2024-03-23T07:57:59;9.03;;;6.03;;
20705;SDS011;10514;49.468;11.044;2024-03-23T08:00:24;7.83;;;5.27;;
20705;SDS011;10514;49.468;11.044;2024-03-23T08:02:51;7.77;;;5.27;;
20705;SDS011;10514;49.468;11.044;2024-03-23T08:05:16;7.90;;;5.10;;
20705;SDS011;10514;49.468;11.044;2024-03-23T08:07:42;8.93;;;5.53;;
20705;SDS011;10514;49.468;11.044;2024-03-23T08:10:07;8.40;;;5.40;;
20705;SDS011;10514;49.468;11.044;2024-03-23T08:12:33;8.10;;;5.57;;
20705;SDS011;10514;49.468;11.044;2024-03-23T08:14:58;9.90;;;5.65;;
20705;SDS011;10514;49.468;11.044;2024-03-23T08:17:24;9.13;;;5.33;;
20705;SDS011;10514;49.468;11.044;2024-03-23T08:19:49;8.50;;;5.37;;
20705;SDS011;10514;49.468;11.044;2024-03-23T08:22:15;6.40;;;4.40;;
20705;SDS011;10514;49.468;11.044;2024-03-23T08:24:40;6.93;;;3.70;;
20705;SDS011;10514;49.468;11.044;2024-03-23T08:27:06;5.73;;;3.73;;
20705;SDS011;10514;49.468;11.044;2024-03-23T08:29:31;5.10;;;3.23;;
20705;SDS011;10514;49.468;11.044;2024-03-23T08:31:57;5.50;;;3.53;;
20705;SDS011;10514;49.468;11.044;2024-03-23T08:34:22;4.97;;;2.83;;
20705;SDS011;10514;49.468;11.044;2024-03-23T08:36:48;4.53;;;2.43;;
20705;SDS011;10514;49.468;11.044;2024-03-23T08:39:14;3.50;;;2.17;;
20705;SDS011;10514;49.468;11.044;2024-03-23T08:41:40;4.60;;;2.10;;
20705;SDS011;10514;49.468;11.044;2024-03-23T08:44:07;2.80;;;1.80;;
20705;SDS011;10514;49.468;11.044;2024-03-23T08:46:33;2.20;;;1.63;;
20705;SDS011;10514;49.468;11.044;2024-03-23T08:48:58;4.07;;;1.73;;
20705;SDS011;10514;49.468;11.044;2024-03-23T08:51:24;1.77;;;1.60;;
20705;SDS011;10514;49.468;11.044;2024-03-23T08:53:49;4.83;;;1.70;;
20705;SDS011;10514;49.468;11.044;2024-03-23T08:56:15;1.70;;;1.37;;
20705;SDS011;10514;49.468;11.044;2024-03-23T08:58:41;2.25;;;1.40;;
20705;SDS011;10514;49.468;11.044;2024-03-23T09:01:07;1.60;;;1.30;;
20705;SDS011;10514;49.468;11.044;2024-03-23T09:03:34;1.65;;;1.27;;
20705;SDS011;10514;49.468;11.044;2024-03-23T09:06:00;1.30;;;1.20;;
20705;SDS011;10514;49.468;11.044;2024-03-23T09:08:26;1.63;;;1.20;;
20705;SDS011;10514;49.468;11.044;2024-03-23T09:10:52;1.02;;;0.93;;
20705;SDS011;10514;49.468;11.044;2024-03-23T09:13:18;1.30;;;1.13;;
20705;SDS011;10514;49.468;11.044;2024-03-23T09:15:47;1.70;;;0.93;;
20705;SDS011;10514;49.468;11.044;2024-03-23T09:18:14;0.80;;;0.80;;
20705;SDS011;10514;49.468;11.044;2024-03-23T09:20:39;0.70;;;0.70;;
20705;SDS011;10514;49.468;11.044;2024-03-23T09:23:05;2.00;;;0.93;;
20705;SDS011;10514;49.468;11.044;2024-03-23T09:25:30;1.67;;;0.70;;
20705;SDS011;10514;49.468;11.044;2024-03-23T09:27:56;0.50;;;0.40;;
20705;SDS011;10514;49.468;11.044;2024-03-23T09:30:22;0.47;;;0.47;;
20705;SDS011;10514;49.468;11.044;2024-03-23T09:32:48;0.40;;;0.40;;
20705;SDS011;10514;49.468;11.044;2024-03-23T09:35:14;0.80;;;0.50;;
20705;SDS011;10514;49.468;11.044;2024-03-23T09:37:39;1.23;;;0.60;;
20705;SDS011;10514;49.468;11.044;2024-03-23T09:40:09;0.37;;;0.30;;
20705;SDS011;10514;49.468;11.044;2024-03-23T09:42:36;0.20;;;0.20;;
20705;SDS011;10514;49.468;11.044;2024-03-23T09:45:02;0.23;;;0.23;;
20705;SDS011;10514;49.468;11.044;2024-03-23T09:47:30;0.30;;;0.30;;
20705;SDS011;10514;49.468;11.044;2024-03-23T09:49:56;0.30;;;0.30;;
20705;SDS011;10514;49.468;11.044;2024-03-23T09:52:21;0.35;;;0.30;;
20705;SDS011;10514;49.468;11.044;2024-03-23T09:54:47;0.38;;;0.38;;
20705;SDS011;10514;49.468;11.044;2024-03-23T09:57:12;0.65;;;0.50;;
20705;SDS011;10514;49.468;11.044;2024-03-23T09:59:38;0.47;;;0.30;;
20705;SDS011;10514;49.468;11.044;2024-03-23T10:02:04;0.93;;;0.40;;
20705;SDS011;10514;49.468;11.044;2024-03-23T10:07:12;0.32;;;0.20;;
20705;SDS011;10514;49.468;11.044;2024-03-23T10:09:39;0.22;;;0.22;;
20705;SDS011;10514;49.468;11.044;2024-03-23T10:12:08;0.95;;;0.30;;
20705;SDS011;10514;49.468;11.044;2024-03-23T10:14:35;0.50;;;0.50;;
20705;SDS011;10514;49.468;11.044;2024-03-23T10:19:59;1.10;;;0.40;;
20705;SDS011;10514;49.468;11.044;2024-03-23T10:22:26;0.88;;;0.32;;
20705;SDS011;10514;49.468;11.044;2024-03-23T10:24:52;0.75;;;0.40;;
20705;SDS011;10514;49.468;11.044;2024-03-23T10:27:19;1.17;;;0.60;;
20705;SDS011;10514;49.468;11.044;2024-03-23T10:29:45;1.10;;;0.60;;
20705;SDS011;10514;49.468;11.044;2024-03-23T10:32:12;1.27;;;0.50;;
20705;SDS011;10514;49.468;11.044;2024-03-23T10:34:39;0.80;;;0.70;;
20705;SDS011;10514;49.468;11.044;2024-03-23T10:37:05;1.07;;;0.60;;
20705;SDS011;10514;49.468;11.044;2024-03-23T10:39:32;3.10;;;0.85;;
20705;SDS011;10514;49.468;11.044;2024-03-23T10:42:00;4.15;;;0.88;;
20705;SDS011;10514;49.468;11.044;2024-03-23T10:46:59;2.95;;;0.93;;
20705;SDS011;10514;49.468;11.044;2024-03-23T10:49:29;2.65;;;1.02;;
20705;SDS011;10514;49.468;11.044;2024-03-23T10:52:03;1.17;;;0.80;;
20705;SDS011;10514;49.468;11.044;2024-03-23T10:54:29;4.00;;;1.20;;
20705;SDS011;10514;49.468;11.044;2024-03-23T10:57:03;2.55;;;1.20;;
20705;SDS011;10514;49.468;11.044;2024-03-23T10:59:39;1.98;;;1.17;;
20705;SDS011;10514;49.468;11.044;2024-03-23T11:02:05;2.95;;;1.10;;
20705;SDS011;10514;49.468;11.044;2024-03-23T11:04:33;1.87;;;1.30;;
20705;SDS011;10514;49.468;11.044;2024-03-23T11:07:01;3.50;;;1.27;;
20705;SDS011;10514;49.468;11.044;2024-03-23T11:09:43;2.40;;;1.27;;
20705;SDS011;10514;49.468;11.044;2024-03-23T11:14:57;2.40;;;1.35;;
20705;SDS011;10514;49.468;11.044;2024-03-23T11:17:26;3.78;;;1.30;;
20705;SDS011;10514;49.468;11.044;2024-03-23T11:19:53;3.50;;;1.50;;
20705;SDS011;10514;49.468;11.044;2024-03-23T11:25:13;3.65;;;1.50;;
20705;SDS011;10514;49.468;11.044;2024-03-23T11:27:40;3.45;;;1.60;;
20705;SDS011;10514;49.468;11.044;2024-03-23T11:30:16;6.00;;;2.10;;
20705;SDS011;10514;49.468;11.044;2024-03-23T11:32:47;3.88;;;1.85;;
20705;SDS011;10514;49.468;11.044;2024-03-23T11:40:43;3.28;;;1.60;;
20705;SDS011;10514;49.468;11.044;2024-03-23T11:43:13;3.45;;;1.55;;
20705;SDS011;10514;49.468;11.044;2024-03-23T11:45:44;12.63;;;3.25;;
20705;SDS011;10514;49.468;11.044;2024-03-23T11:48:11;3.70;;;1.63;;
20705;SDS011;10514;49.468;11.044;2024-03-23T11:50:43;4.72;;;2.28;;
20705;SDS011;10514;49.468;11.044;2024-03-23T11:53:12;6.18;;;1.98;;
20705;SDS011;10514;49.468;11.044;2024-03-23T11:55:41;6.88;;;2.13;;
20705;SDS011;10514;49.468;11.044;2024-03-23T11:58:14;5.35;;;1.85;;
20705;SDS011;10514;49.468;11.044;2024-03-23T12:00:40;5.30;;;1.98;;
20705;SDS011;10514;49.468;11.044;2024-03-23T12:03:06;5.53;;;2.25;;
20705;SDS011;10514;49.468;11.044;2024-03-23T12:05:32;3.95;;;1.45;;
20705;SDS011;10514;49.468;11.044;2024-03-23T12:10:47;3.95;;;1.80;;
20705;SDS011;10514;49.468;11.044;2024-03-23T12:13:17;5.18;;;1.65;;
20705;SDS011;10514;49.468;11.044;2024-03-23T12:15:44;3.25;;;1.38;;
20705;SDS011;10514;49.468;11.044;2024-03-23T12:18:11;3.10;;;1.40;;
20705;SDS011;10514;49.468;11.044;2024-03-23T12:20:37;3.90;;;1.30;;
20705;SDS011;10514;49.468;11.044;2024-03-23T12:23:10;3.70;;;1.60;;
20705;SDS011;10514;49.468;11.044;2024-03-23T12:25:37;4.30;;;1.60;;
20705;SDS011;10514;49.468;11.044;2024-03-23T12:28:04;4.72;;;1.63;;
20705;SDS011;10514;49.468;11.044;2024-03-23T12:30:36;5.50;;;1.88;;
20705;SDS011;10514;49.468;11.044;2024-03-23T12:33:04;4.50;;;1.70;;
20705;SDS011;10514;49.468;11.044;2024-03-23T12:35:30;4.03;;;1.95;;
20705;SDS011;10514;49.468;11.044;2024-03-23T12:37:55;3.05;;;1.80;;
20705;SDS011;10514;49.468;11.044;2024-03-23T12:40:21;4.40;;;1.75;;
20705;SDS011;10514;49.468;11.044;2024-03-23T12:42:47;4.75;;;1.70;;
20705;SDS011;10514;49.468;11.044;2024-03-23T12:45:12;4.05;;;1.60;;
20705;SDS011;10514;49.468;11.044;2024-03-23T12:47:38;5.50;;;1.80;;
20705;SDS011;10514;49.468;11.044;2024-03-23T12:50:04;4.30;;;2.05;;
20705;SDS011;10514;49.468;11.044;2024-03-23T12:52:30;3.60;;;1.85;;
20705;SDS011;10514;49.468;11.044;2024-03-23T12:54:57;4.82;;;1.60;;
20705;SDS011;10514;49.468;11.044;2024-03-23T12:57:26;5.22;;;1.85;;
20705;SDS011;10514;49.468;11.044;2024-03-23T12:59:51;3.75;;;1.92;;
20705;SDS011;10514;49.468;11.044;2024-03-23T13:02:21;4.75;;;1.60;;
20705;SDS011;10514;49.468;11.044;2024-03-23T13:04:50;3.90;;;1.58;;
20705;SDS011;10514;49.468;11.044;2024-03-23T13:07:17;4.18;;;2.08;;
20705;SDS011;10514;49.468;11.044;2024-03-23T13:09:43;5.40;;;1.90;;
20705;SDS011;10514;49.468;11.044;2024-03-23T13:12:09;4.40;;;1.85;;
20705;SDS011;10514;49.468;11.044;2024-03-23T13:14:34;5.85;;;2.15;;
20705;SDS011;10514;49.468;11.044;2024-03-23T13:17:01;5.05;;;1.50;;
20705;SDS011;10514;49.468;11.044;2024-03-23T13:19:27;5.07;;;1.88;;
20705;SDS011;10514;49.468;11.044;2024-03-23T13:21:55;4.00;;;1.52;;
20705;SDS011;10514;49.468;11.044;2024-03-23T13:24:25;7.00;;;1.90;;
20705;SDS011;10514;49.468;11.044;2024-03-23T13:26:51;5.45;;;1.98;;
20705;SDS011;10514;49.468;11.044;2024-03-23T13:29:18;4.43;;;1.70;;
20705;SDS011;10514;49.468;11.044;2024-03-23T13:31:44;6.63;;;1.83;;
20705;SDS011;10514;49.468;11.044;2024-03-23T13:34:10;2.22;;;1.45;;
20705;SDS011;10514;49.468;11.044;2024-03-23T13:36:36;5.88;;;1.70;;
20705;SDS011;10514;49.468;11.044;2024-03-23T13:39:02;5.05;;;1.90;;
20705;SDS011;10514;49.468;11.044;2024-03-23T13:41:34;5.75;;;1.95;;
20705;SDS011;10514;49.468;11.044;2024-03-23T13:43:59;6.07;;;1.90;;
20705;SDS011;10514;49.468;11.044;2024-03-23T13:46:25;4.65;;;1.85;;
20705;SDS011;10514;49.468;11.044;2024-03-23T13:48:50;3.25;;;1.50;;
20705;SDS011;10514;49.468;11.044;2024-03-23T13:51:16;4.38;;;1.67;;
20705;SDS011;10514;49.468;11.044;2024-03-23T13:53:49;6.18;;;1.50;;
20705;SDS011;10514;49.468;11.044;2024-03-23T13:56:14;6.15;;;1.90;;
20705;SDS011;10514;49.468;11.044;2024-03-23T13:58:40;4.85;;;1.58;;
20705;SDS011;10514;49.468;11.044;2024-03-23T14:01:10;5.63;;;2.05;;
20705;SDS011;10514;49.468;11.044;2024-03-23T14:03:36;5.15;;;1.98;;
20705;SDS011;10514;49.468;11.044;2024-03-23T14:06:01;5.40;;;1.73;;
20705;SDS011;10514;49.468;11.044;2024-03-23T14:08:28;5.88;;;1.90;;
20705;SDS011;10514;49.468;11.044;2024-03-23T14:10:53;5.18;;;1.98;;
20705;SDS011;10514;49.468;11.044;2024-03-23T14:13:19;5.07;;;1.70;;
20705;SDS011;10514;49.468;11.044;2024-03-23T14:15:45;5.45;;;1.77;;
20705;SDS011;10514;49.468;11.044;2024-03-23T14:18:10;8.82;;;2.15;;
20705;SDS011;10514;49.468;11.044;2024-03-23T14:20:36;5.28;;;2.42;;
20705;SDS011;10514;49.468;11.044;2024-03-23T14:23:01;4.20;;;1.35;;
20705;SDS011;10514;49.468;11.044;2024-03-23T14:25:27;4.60;;;1.77;;
20705;SDS011;10514;49.468;11.044;2024-03-23T14:27:54;3.58;;;1.85;;
20705;SDS011;10514;49.468;11.044;2024-03-23T14:30:20;3.75;;;1.45;;
20705;SDS011;10514;49.468;11.044;2024-03-23T14:32:45;4.22;;;1.70;;
20705;SDS011;10514;49.468;11.044;2024-03-23T14:35:11;4.25;;;1.70;;
20705;SDS011;10514;49.468;11.044;2024-03-23T14:37:37;4.20;;;1.30;;
20705;SDS011;10514;49.468;11.044;2024-03-23T14:40:03;3.95;;;1.60;;
20705;SDS011;10514;49.468;11.044;2024-03-23T14:42:29;3.63;;;1.50;;
20705;SDS011;10514;49.468;11.044;2024-03-23T14:44:56;4.43;;;1.40;;
20705;SDS011;10514;49.468;11.044;2024-03-23T14:47:21;4.28;;;1.50;;
20705;SDS011;10514;49.468;11.044;2024-03-23T14:49:47;4.65;;;1.45;;
20705;SDS011;10514;49.468;11.044;2024-03-23T14:52:13;5.38;;;1.70;;
20705;SDS011;10514;49.468;11.044;2024-03-23T14:54:39;6.22;;;1.85;;
20705;SDS011;10514;49.468;11.044;2024-03-23T14:57:04;5.65;;;2.20;;
20705;SDS011;10514;49.468;11.044;2024-03-23T14:59:31;3.83;;;1.60;;
20705;SDS011;10514;49.468;11.044;2024-03-23T15:01:57;4.72;;;1.77;;
20705;SDS011;10514;49.468;11.044;2024-03-23T15:04:23;6.32;;;1.65;;
20705;SDS011;10514;49.468;11.044;2024-03-23T15:06:48;5.90;;;2.03;;
20705;SDS011;10514;49.468;11.044;2024-03-23T15:09:15;5.43;;;1.60;;
20705;SDS011;10514;49.468;11.044;2024-03-23T15:11:40;6.80;;;2.20;;
20705;SDS011;10514;49.468;11.044;2024-03-23T15:14:06;6.90;;;2.23;;
20705;SDS011;10514;49.468;11.044;2024-03-23T15:16:32;5.97;;;2.40;;
20705;SDS011;10514;49.468;11.044;2024-03-23T15:18:58;3.33;;;1.77;;
20705;SDS011;10514;49.468;11.044;2024-03-23T15:21:23;4.03;;;1.80;;
20705;SDS011;10514;49.468;11.044;2024-03-23T15:23:49;6.33;;;2.43;;
20705;SDS011;10514;49.468;11.044;2024-03-23T15:26:14;3.97;;;2.07;;
20705;SDS011;10514;49.468;11.044;2024-03-23T15:28:41;6.13;;;2.50;;
20705;SDS011;10514;49.468;11.044;2024-03-23T15:31:09;4.27;;;2.20;;
20705;SDS011;10514;49.468;11.044;2024-03-23T15:33:34;3.07;;;1.70;;
20705;SDS011;10514;49.468;11.044;2024-03-23T15:36:01;3.57;;;1.60;;
20705;SDS011;10514;49.468;11.044;2024-03-23T15:38:27;3.47;;;1.90;;
20705;SDS011;10514;49.468;11.044;2024-03-23T15:40:56;5.03;;;2.00;;
20705;SDS011;10514;49.468;11.044;2024-03-23T15:43:22;4.77;;;1.73;;
20705;SDS011;10514;49.468;11.044;2024-03-23T15:45:57;3.43;;;1.80;;
20705;SDS011;10514;49.468;11.044;2024-03-23T15:48:24;3.93;;;1.70;;
20705;SDS011;10514;49.468;11.044;2024-03-23T15:50:54;5.77;;;1.77;;
20705;SDS011;10514;49.468;11.044;2024-03-23T15:53:21;4.33;;;1.90;;